Time;durP1;ratioP1;P1;durP2;ratioP2;P2;SDS_P1;SDS_P2;PMS_P1;PMS_P2;Temp;Humidity;BMP_temperature;BMP_pressure;BME280_temperature;BME280_humidity;BME280_pressure;Samples;Min_cycle;Max_cycle;Signal;HPM_P1;HPM_P2
2023/11/12 00:08:41;;;;;;;;;;;5.80;99.90;;;;;;6628982;89;20028;-84
2023/11/12 00:18:41;;;;;;;;;;;5.70;99.90;;;;;;6664583;89;20116;-83
2023/11/12 00:28:42;;;;;;;;;;;5.70;99.90;;;;;;6664765;89;20042;-84
2023/11/12 00:38:42;;;;;;;;;;;5.70;99.90;;;;;;6681165;89;20033;-84
2023/11/12 00:48:44;;;;;;;;;;;5.70;99.90;;;;;;6673561;89;20879;-83
2023/11/12 00:58:45;;;;;;;;;;;5.70;99.90;;;;;;6629018;89;20035;-87
2023/11/12 01:08:46;;;;;;;;;;;5.70;99.90;;;;;;6630179;89;20045;-84
2023/11/12 01:18:46;;;;;;;;;;;5.60;99.90;;;;;;6630751;89;20031;-83
2023/11/12 01:28:47;;;;;;;;;;;5.70;99.90;;;;;;6630307;89;20032;-84
2023/11/12 01:38:47;;;;;;;;;;;5.70;99.90;;;;;;6644335;89;20762;-84
2023/11/12 01:48:48;;;;;;;;;;;5.80;99.90;;;;;;6644224;89;20058;-84
2023/11/12 01:58:51;;;;;;;;;;;5.80;99.90;;;;;;6644135;89;20064;-84
2023/11/12 02:08:51;;;;;;;;;;;5.60;99.90;;;;;;6632693;89;20748;-84
2023/11/12 02:18:52;;;;;;;;;;;5.40;99.90;;;;;;6629432;89;20027;-84
2023/11/12 02:28:52;;;;;;;;;;;5.40;99.90;;;;;;6629338;89;20046;-84
2023/11/12 02:38:52;;;;;;;;;;;5.60;99.90;;;;;;6629419;89;20103;-84
2023/11/12 02:49:12;;;;;;;;;;;5.80;99.90;;;;;;6629468;89;20036;-83
2023/11/12 02:59:12;;;;;;;;;;;5.70;99.90;;;;;;6630372;89;20143;-84
2023/11/12 03:09:13;;;;;;;;;;;5.70;99.90;;;;;;6631940;89;20955;-87
2023/11/12 03:19:14;;;;;;;;;;;5.60;99.90;;;;;;6630747;89;20053;-84
2023/11/12 03:29:15;;;;;;;;;;;5.60;99.90;;;;;;6630559;89;20805;-85
2023/11/12 03:39:17;;;;;;;;;;;5.10;99.90;;;;;;6629982;89;20176;-84
2023/11/12 03:49:21;;;;;;;;;;;4.90;99.90;;;;;;6628057;89;20313;-85
2023/11/12 03:59:21;;;;;;;;;;;4.80;99.90;;;;;;6631943;89;20031;-83
2023/11/12 04:09:22;;;;;;;;;;;4.70;99.90;;;;;;6631261;89;20043;-83
2023/11/12 04:19:24;;;;;;;;;;;4.80;99.90;;;;;;6629079;89;20623;-84
2023/11/12 04:29:26;;;;;;;;;;;4.70;99.90;;;;;;6628847;89;20044;-84
2023/11/12 04:39:27;;;;;;;;;;;4.80;99.90;;;;;;6698165;88;20778;-83
2023/11/12 04:49:28;;;;;;;;;;;4.60;99.90;;;;;;6684533;88;21088;-85
2023/11/12 04:59:28;;;;;;;;;;;4.50;99.90;;;;;;6681087;89;20025;-83
2023/11/12 05:09:29;;;;;;;;;;;4.50;99.90;;;;;;6626520;89;20827;-83
2023/11/12 05:19:29;;;;;;;;;;;4.50;99.90;;;;;;6639198;89;20052;-84
2023/11/12 05:29:30;;;;;;;;;;;4.40;99.90;;;;;;6646829;89;20031;-83
2023/11/12 05:39:31;;;;;;;;;;;4.30;99.90;;;;;;6646940;89;20391;-83
2023/11/12 05:49:32;;;;;;;;;;;4.10;99.90;;;;;;6646856;89;20038;-84
2023/11/12 05:59:32;;;;;;;;;;;4.20;99.90;;;;;;6646777;89;20062;-84
2023/11/12 06:09:32;;;;;;;;;;;3.90;99.90;;;;;;6646578;89;20051;-84
2023/11/12 06:19:33;;;;;;;;;;;4.10;99.90;;;;;;6646362;89;20066;-84
2023/11/12 06:29:35;;;;;;;;;;;4.00;99.90;;;;;;6645951;89;20105;-83
2023/11/12 06:39:36;;;;;;;;;;;4.20;99.90;;;;;;6646052;89;20109;-84
2023/11/12 06:49:36;;;;;;;;;;;4.30;99.90;;;;;;6627006;89;20048;-83
2023/11/12 06:59:37;;;;;;;;;;;4.30;99.90;;;;;;6626969;89;20035;-82
2023/11/12 07:09:37;;;;;;;;;;;4.40;99.90;;;;;;6626897;89;20236;-81
2023/11/12 07:19:38;;;;;;;;;;;4.40;99.90;;;;;;6692751;88;20093;-83
2023/11/12 07:29:38;;;;;;;;;;;4.40;99.90;;;;;;6697060;88;20091;-82
2023/11/12 07:39:40;;;;;;;;;;;4.30;99.90;;;;;;6696372;88;20803;-81
2023/11/12 07:49:40;;;;;;;;;;;4.30;99.90;;;;;;6657047;88;20096;-82
2023/11/12 07:59:41;;;;;;;;;;;4.50;99.90;;;;;;6640777;89;20114;-81
2023/11/12 08:09:46;;;;;;;;;;;4.80;99.90;;;;;;6647275;89;20061;-81
2023/11/12 08:19:46;;;;;;;;;;;5.20;99.90;;;;;;6646479;89;20948;-83
2023/11/12 08:29:47;;;;;;;;;;;5.60;99.90;;;;;;6641635;89;20063;-80
2023/11/12 08:39:47;;;;;;;;;;;6.00;99.90;;;;;;6635804;89;20101;-82
2023/11/12 08:49:48;;;;;;;;;;;6.30;99.90;;;;;;6642696;89;20068;-82
2023/11/12 08:59:48;;;;;;;;;;;6.60;99.90;;;;;;6641952;89;20066;-80
2023/11/12 09:09:49;;;;;;;;;;;6.70;99.90;;;;;;6628958;89;20153;-82
2023/11/12 09:19:49;;;;;;;;;;;7.20;99.90;;;;;;6636805;89;20103;-82
2023/11/12 09:29:50;;;;;;;;;;;7.20;99.90;;;;;;6640640;89;20751;-82
2023/11/12 09:39:50;;;;;;;;;;;7.20;99.90;;;;;;6643487;88;20043;-82
2023/11/12 09:49:51;;;;;;;;;;;7.50;99.90;;;;;;6638364;88;20055;-83
2023/11/12 09:59:52;;;;;;;;;;;7.80;99.90;;;;;;6639226;88;20087;-83
2023/11/12 10:10:13;;;;;;;;;;;7.70;99.90;;;;;;6657088;78;20129;-82
2023/11/12 10:20:20;;;;;;;;;;;8.10;99.90;;;;;;6639965;88;20168;-81
2023/11/12 10:30:21;;;;;;;;;;;8.60;99.90;;;;;;6638008;89;20046;-80
2023/11/12 10:40:21;;;;;;;;;;;8.90;99.90;;;;;;6637225;88;20170;-81
2023/11/12 10:50:25;;;;;;;;;;;9.10;99.90;;;;;;6633461;88;20035;-80
2023/11/12 11:00:26;;;;;;;;;;;9.50;99.90;;;;;;6642913;88;20586;-85
2023/11/12 11:10:26;;;;;;;;;;;9.70;99.90;;;;;;6641284;88;20094;-78
2023/11/12 11:20:47;;;;;;;;;;;10.20;99.90;;;;;;6670508;88;20051;-81
2023/11/12 11:31:06;;;;;;;;;;;10.50;99.90;;;;;;6653587;88;20035;-85
2023/11/12 11:41:08;;;;;;;;;;;10.10;99.90;;;;;;6697619;88;20059;-80
2023/11/12 11:51:27;;;;;;;;;;;11.20;99.90;;;;;;6672998;89;20718;-82
2023/11/12 12:01:28;;;;;;;;;;;11.10;99.90;;;;;;6675490;89;20064;-81
2023/11/12 12:11:28;;;;;;;;;;;11.30;99.90;;;;;;6697792;89;20090;-80
2023/11/12 12:21:31;;;;;;;;;;;11.60;99.90;;;;;;6638116;88;20244;-81
2023/11/12 12:31:31;;;;;;;;;;;11.90;99.90;;;;;;6651521;88;20072;-79
2023/11/12 12:41:33;;;;;;;;;;;12.70;99.90;;;;;;6665183;88;20081;-81
2023/11/12 12:51:34;;;;;;;;;;;11.30;99.90;;;;;;6649523;88;20556;-82
2023/11/12 13:01:35;;;;;;;;;;;11.60;99.90;;;;;;6646378;88;20542;-82
2023/11/12 13:11:35;;;;;;;;;;;10.90;99.90;;;;;;6647625;89;20067;-81
2023/11/12 13:21:36;;;;;;;;;;;11.60;99.90;;;;;;6649424;89;20092;-83
2023/11/12 13:31:38;;;;;;;;;;;11.50;99.90;;;;;;6709561;88;20714;-81
2023/11/12 13:41:38;;;;;;;;;;;11.00;99.90;;;;;;6708951;88;20098;-80
2023/11/12 13:51:41;;;;;;;;;;;10.50;99.90;;;;;;6659852;88;20100;-80
2023/11/12 14:01:41;;;;;;;;;;;9.90;99.90;;;;;;6657411;88;20178;-82
2023/11/12 14:11:42;;;;;;;;;;;9.90;99.90;;;;;;6657314;88;20030;-82
2023/11/12 14:21:43;;;;;;;;;;;9.60;99.90;;;;;;6662931;88;20135;-83
2023/11/12 14:31:44;;;;;;;;;;;9.60;99.90;;;;;;6676443;88;20049;-82
2023/11/12 14:41:45;;;;;;;;;;;9.60;99.90;;;;;;6667721;89;20649;-81
2023/11/12 14:51:45;;;;;;;;;;;9.40;99.90;;;;;;6660714;89;20113;-81
2023/11/12 15:01:46;;;;;;;;;;;9.20;99.90;;;;;;6670726;88;20769;-81
2023/11/12 15:11:47;;;;;;;;;;;9.10;99.90;;;;;;6664363;88;20187;-80
2023/11/12 15:21:48;;;;;;;;;;;8.90;99.90;;;;;;6659471;88;20072;-81
2023/11/12 15:31:48;;;;;;;;;;;8.70;99.90;;;;;;6656743;88;20079;-80
2023/11/12 15:41:49;;;;;;;;;;;8.50;99.90;;;;;;6657831;88;20083;-80
2023/11/12 15:51:49;;;;;;;;;;;8.40;99.90;;;;;;6659139;88;20056;-80
2023/11/12 16:01:49;;;;;;;;;;;8.30;99.90;;;;;;6664972;88;20045;-82
2023/11/12 16:11:50;;;;;;;;;;;8.20;99.90;;;;;;6664740;88;20061;-81
2023/11/12 16:21:50;;;;;;;;;;;8.00;99.90;;;;;;6647878;77;20106;-79
2023/11/12 16:32:03;;;;;;;;;;;8.10;99.90;;;;;;6631682;88;20182;-79
2023/11/12 16:42:03;;;;;;;;;;;8.00;99.90;;;;;;6627505;88;20067;-79
2023/11/12 16:52:04;;;;;;;;;;;8.00;99.90;;;;;;6625334;89;20104;-77
2023/11/12 17:02:09;;;;;;;;;;;7.90;99.90;;;;;;6620742;88;20080;-77
2023/11/12 17:12:12;;;;;;;;;;;7.80;99.90;;;;;;6621854;88;20217;-78
2023/11/12 17:22:13;;;;;;;;;;;7.60;99.90;;;;;;6627307;88;20079;-77
2023/11/12 17:32:15;;;;;;;;;;;7.50;99.90;;;;;;6647830;88;20113;-77
2023/11/12 17:42:15;;;;;;;;;;;7.40;99.90;;;;;;6621955;88;20086;-78
2023/11/12 17:52:16;;;;;;;;;;;7.50;99.90;;;;;;6628748;88;20197;-76
2023/11/12 18:02:16;;;;;;;;;;;7.20;99.90;;;;;;6619986;88;20066;-77
2023/11/12 18:12:17;;;;;;;;;;;7.00;99.90;;;;;;6624683;89;20084;-77
2023/11/12 18:22:18;;;;;;;;;;;7.00;99.90;;;;;;6630437;88;20095;-77
2023/11/12 18:32:18;;;;;;;;;;;6.90;99.90;;;;;;6628500;88;20062;-77
2023/11/12 18:42:19;;;;;;;;;;;7.00;99.90;;;;;;6630286;88;20129;-77
2023/11/12 18:52:19;;;;;;;;;;;6.80;99.90;;;;;;6628083;88;20063;-76
2023/11/12 19:02:20;;;;;;;;;;;6.70;99.90;;;;;;6630939;88;20071;-77
2023/11/12 19:12:20;;;;;;;;;;;6.50;99.90;;;;;;6631509;88;20090;-77
2023/11/12 19:22:21;;;;;;;;;;;6.70;99.90;;;;;;6629080;88;20222;-78
2023/11/12 19:32:21;;;;;;;;;;;6.70;99.90;;;;;;6625172;88;20567;-77
2023/11/12 19:42:22;;;;;;;;;;;6.80;99.90;;;;;;6625594;88;20063;-78
2023/11/12 19:52:22;;;;;;;;;;;6.80;99.90;;;;;;6630046;88;20122;-78
2023/11/12 20:02:23;;;;;;;;;;;6.80;99.90;;;;;;6641770;88;20156;-79
2023/11/12 20:12:25;;;;;;;;;;;6.90;99.90;;;;;;6631940;88;20081;-78
2023/11/12 20:22:26;;;;;;;;;;;6.90;99.90;;;;;;6628427;88;20471;-78
2023/11/12 20:32:27;;;;;;;;;;;6.90;99.90;;;;;;6626026;89;20079;-78
2023/11/12 20:42:28;;;;;;;;;;;6.90;99.90;;;;;;6626621;88;20074;-77
2023/11/12 20:52:29;;;;;;;;;;;6.80;99.90;;;;;;6633387;88;20054;-77
2023/11/12 21:02:30;;;;;;;;;;;6.90;99.90;;;;;;6625520;89;20076;-78
2023/11/12 21:12:31;;;;;;;;;;;6.90;99.90;;;;;;6625606;88;20479;-77
2023/11/12 21:22:32;;;;;;;;;;;7.00;99.90;;;;;;6627042;88;20075;-78
2023/11/12 21:32:33;;;;;;;;;;;6.90;99.90;;;;;;6632287;88;20121;-77
2023/11/12 21:42:33;;;;;;;;;;;7.00;99.90;;;;;;6623929;88;20064;-77
2023/11/12 21:52:33;;;;;;;;;;;7.10;99.90;;;;;;6631649;88;20082;-78
2023/11/12 22:02:34;;;;;;;;;;;6.90;99.90;;;;;;6632099;88;20154;-76
2023/11/12 22:12:34;;;;;;;;;;;6.70;99.90;;;;;;6624662;88;20536;-77
2023/11/12 22:22:35;;;;;;;;;;;6.60;99.90;;;;;;6627438;88;20113;-77
2023/11/12 22:43:17;;;;;;;;;;;6.40;99.90;;;;;;6645930;89;20073;-80
2023/11/12 22:53:18;;;;;;;;;;;6.60;99.90;;;;;;6645816;89;20062;-82
2023/11/12 23:03:19;;;;;;;;;;;6.60;99.90;;;;;;6715696;88;20044;-80
2023/11/12 23:13:19;;;;;;;;;;;6.60;99.90;;;;;;6714796;88;20564;-80
2023/11/12 23:23:20;;;;;;;;;;;6.60;99.90;;;;;;6717252;88;20108;-83
2023/11/12 23:33:20;;;;;;;;;;;6.60;99.90;;;;;;6725531;88;20076;-82
2023/11/12 23:43:22;;;;;;;;;;;6.60;99.90;;;;;;6716244;88;20077;-80
2023/11/12 23:53:22;;;;;;;;;;;6.70;99.90;;;;;;6708475;88;20114;-82
